sensor_id;sensor_type;location;lat;lon;timestamp;P1;durP1;ratioP1;P2;durP2;ratioP2
25637;SDS011;13496;51.040;13.680;2023-11-21T00:00:54;1.10;;;1.00;;
25637;SDS011;13496;51.040;13.680;2023-11-21T00:05:55;1.83;;;1.20;;
25637;SDS011;13496;51.040;13.680;2023-11-21T00:10:59;1.23;;;1.00;;
25637;SDS011;13496;51.040;13.680;2023-11-21T00:16:01;1.10;;;1.00;;
25637;SDS011;13496;51.040;13.680;2023-11-21T00:21:03;1.75;;;1.10;;
25637;SDS011;13496;51.040;13.680;2023-11-21T00:26:05;1.13;;;1.00;;
25637;SDS011;13496;51.040;13.680;2023-11-21T00:31:07;1.83;;;1.05;;
25637;SDS011;13496;51.040;13.680;2023-11-21T00:36:08;1.27;;;1.08;;
25637;SDS011;13496;51.040;13.680;2023-11-21T00:41:10;1.23;;;0.90;;
25637;SDS011;13496;51.040;13.680;2023-11-21T00:46:12;0.85;;;0.85;;
25637;SDS011;13496;51.040;13.680;2023-11-21T00:51:15;1.52;;;1.00;;
25637;SDS011;13496;51.040;13.680;2023-11-21T00:56:16;0.93;;;0.82;;
25637;SDS011;13496;51.040;13.680;2023-11-21T01:01:18;1.00;;;0.90;;
25637;SDS011;13496;51.040;13.680;2023-11-21T01:06:21;0.90;;;0.90;;
25637;SDS011;13496;51.040;13.680;2023-11-21T01:11:23;1.30;;;1.10;;
25637;SDS011;13496;51.040;13.680;2023-11-21T01:16:25;0.90;;;0.90;;
25637;SDS011;13496;51.040;13.680;2023-11-21T01:21:26;1.13;;;0.95;;
25637;SDS011;13496;51.040;13.680;2023-11-21T01:26:29;0.80;;;0.80;;
25637;SDS011;13496;51.040;13.680;2023-11-21T01:31:31;1.15;;;1.05;;
25637;SDS011;13496;51.040;13.680;2023-11-21T01:36:32;1.88;;;1.00;;
25637;SDS011;13496;51.040;13.680;2023-11-21T01:41:34;2.47;;;1.00;;
25637;SDS011;13496;51.040;13.680;2023-11-21T01:46:37;2.05;;;0.70;;
25637;SDS011;13496;51.040;13.680;2023-11-21T01:51:41;1.35;;;1.00;;
25637;SDS011;13496;51.040;13.680;2023-11-21T01:56:45;1.20;;;0.95;;
25637;SDS011;13496;51.040;13.680;2023-11-21T02:01:48;0.70;;;0.70;;
25637;SDS011;13496;51.040;13.680;2023-11-21T02:06:52;0.80;;;0.80;;
25637;SDS011;13496;51.040;13.680;2023-11-21T02:11:56;0.80;;;0.80;;
25637;SDS011;13496;51.040;13.680;2023-11-21T02:17:00;0.85;;;0.80;;
25637;SDS011;13496;51.040;13.680;2023-11-21T02:22:02;1.73;;;1.02;;
25637;SDS011;13496;51.040;13.680;2023-11-21T02:27:07;1.10;;;1.00;;
25637;SDS011;13496;51.040;13.680;2023-11-21T02:32:09;0.90;;;0.90;;
25637;SDS011;13496;51.040;13.680;2023-11-21T02:37:12;1.42;;;0.90;;
25637;SDS011;13496;51.040;13.680;2023-11-21T02:42:14;1.33;;;0.93;;
25637;SDS011;13496;51.040;13.680;2023-11-21T02:47:16;1.45;;;0.90;;
25637;SDS011;13496;51.040;13.680;2023-11-21T02:52:18;0.70;;;0.70;;
25637;SDS011;13496;51.040;13.680;2023-11-21T02:57:20;0.80;;;0.80;;
25637;SDS011;13496;51.040;13.680;2023-11-21T03:02:22;0.70;;;0.68;;
25637;SDS011;13496;51.040;13.680;2023-11-21T03:07:26;0.93;;;0.88;;
25637;SDS011;13496;51.040;13.680;2023-11-21T03:12:27;0.95;;;0.95;;
25637;SDS011;13496;51.040;13.680;2023-11-21T03:17:29;0.80;;;0.80;;
25637;SDS011;13496;51.040;13.680;2023-11-21T03:22:31;0.80;;;0.80;;
25637;SDS011;13496;51.040;13.680;2023-11-21T03:27:34;0.75;;;0.75;;
25637;SDS011;13496;51.040;13.680;2023-11-21T03:32:35;0.73;;;0.73;;
25637;SDS011;13496;51.040;13.680;2023-11-21T03:37:37;0.70;;;0.70;;
25637;SDS011;13496;51.040;13.680;2023-11-21T03:42:43;0.98;;;0.88;;
25637;SDS011;13496;51.040;13.680;2023-11-21T03:47:44;0.70;;;0.70;;
25637;SDS011;13496;51.040;13.680;2023-11-21T03:52:46;0.70;;;0.70;;
25637;SDS011;13496;51.040;13.680;2023-11-21T03:57:47;1.25;;;0.80;;
25637;SDS011;13496;51.040;13.680;2023-11-21T04:02:49;0.80;;;0.80;;
25637;SDS011;13496;51.040;13.680;2023-11-21T04:07:53;1.33;;;0.95;;
25637;SDS011;13496;51.040;13.680;2023-11-21T04:12:55;0.70;;;0.70;;
25637;SDS011;13496;51.040;13.680;2023-11-21T04:17:56;1.15;;;0.70;;
25637;SDS011;13496;51.040;13.680;2023-11-21T04:22:58;0.80;;;0.80;;
25637;SDS011;13496;51.040;13.680;2023-11-21T04:28:00;0.95;;;0.70;;
25637;SDS011;13496;51.040;13.680;2023-11-21T04:33:01;0.75;;;0.73;;
25637;SDS011;13496;51.040;13.680;2023-11-21T04:38:04;1.08;;;0.90;;
25637;SDS011;13496;51.040;13.680;2023-11-21T04:43:06;0.60;;;0.60;;
25637;SDS011;13496;51.040;13.680;2023-11-21T04:48:07;0.90;;;0.82;;
25637;SDS011;13496;51.040;13.680;2023-11-21T04:53:09;0.70;;;0.70;;
25637;SDS011;13496;51.040;13.680;2023-11-21T04:58:13;0.60;;;0.60;;
25637;SDS011;13496;51.040;13.680;2023-11-21T05:03:15;0.68;;;0.68;;
25637;SDS011;13496;51.040;13.680;2023-11-21T05:08:17;0.77;;;0.77;;
25637;SDS011;13496;51.040;13.680;2023-11-21T05:13:20;1.08;;;0.90;;
25637;SDS011;13496;51.040;13.680;2023-11-21T05:18:22;1.05;;;0.93;;
25637;SDS011;13496;51.040;13.680;2023-11-21T05:23:24;0.80;;;0.80;;
25637;SDS011;13496;51.040;13.680;2023-11-21T05:28:26;1.00;;;0.90;;
25637;SDS011;13496;51.040;13.680;2023-11-21T05:33:27;1.63;;;0.90;;
25637;SDS011;13496;51.040;13.680;2023-11-21T05:38:29;0.80;;;0.80;;
25637;SDS011;13496;51.040;13.680;2023-11-21T05:43:31;2.15;;;1.00;;
25637;SDS011;13496;51.040;13.680;2023-11-21T05:48:34;1.98;;;0.93;;
25637;SDS011;13496;51.040;13.680;2023-11-21T05:53:38;1.40;;;1.10;;
25637;SDS011;13496;51.040;13.680;2023-11-21T05:58:39;3.30;;;1.02;;
25637;SDS011;13496;51.040;13.680;2023-11-21T06:03:41;1.30;;;0.90;;
25637;SDS011;13496;51.040;13.680;2023-11-21T06:08:43;3.58;;;1.08;;
25637;SDS011;13496;51.040;13.680;2023-11-21T06:13:45;2.63;;;1.02;;
25637;SDS011;13496;51.040;13.680;2023-11-21T06:18:47;1.70;;;1.00;;
25637;SDS011;13496;51.040;13.680;2023-11-21T06:23:48;0.95;;;0.80;;
25637;SDS011;13496;51.040;13.680;2023-11-21T06:28:50;2.13;;;1.38;;
25637;SDS011;13496;51.040;13.680;2023-11-21T06:33:52;1.55;;;1.10;;
25637;SDS011;13496;51.040;13.680;2023-11-21T06:38:54;1.25;;;0.85;;
25637;SDS011;13496;51.040;13.680;2023-11-21T06:43:56;0.90;;;0.90;;
25637;SDS011;13496;51.040;13.680;2023-11-21T06:49:00;1.63;;;1.00;;
25637;SDS011;13496;51.040;13.680;2023-11-21T06:54:02;2.35;;;0.90;;
25637;SDS011;13496;51.040;13.680;2023-11-21T06:59:03;2.20;;;1.10;;
25637;SDS011;13496;51.040;13.680;2023-11-21T07:04:07;1.70;;;1.15;;
25637;SDS011;13496;51.040;13.680;2023-11-21T07:09:08;2.10;;;1.42;;
25637;SDS011;13496;51.040;13.680;2023-11-21T07:14:10;2.55;;;1.30;;
25637;SDS011;13496;51.040;13.680;2023-11-21T07:19:13;1.20;;;1.10;;
25637;SDS011;13496;51.040;13.680;2023-11-21T07:24:15;2.38;;;1.15;;
25637;SDS011;13496;51.040;13.680;2023-11-21T07:29:17;1.65;;;1.27;;
25637;SDS011;13496;51.040;13.680;2023-11-21T07:34:19;1.70;;;1.13;;
25637;SDS011;13496;51.040;13.680;2023-11-21T07:39:22;1.63;;;1.20;;
25637;SDS011;13496;51.040;13.680;2023-11-21T07:44:26;1.50;;;1.20;;
25637;SDS011;13496;51.040;13.680;2023-11-21T07:49:28;2.00;;;1.30;;
25637;SDS011;13496;51.040;13.680;2023-11-21T07:54:30;2.20;;;1.30;;
25637;SDS011;13496;51.040;13.680;2023-11-21T07:59:31;2.33;;;1.30;;
25637;SDS011;13496;51.040;13.680;2023-11-21T08:04:33;2.17;;;1.30;;
25637;SDS011;13496;51.040;13.680;2023-11-21T08:09:36;2.45;;;1.52;;
25637;SDS011;13496;51.040;13.680;2023-11-21T08:14:38;1.27;;;0.98;;
25637;SDS011;13496;51.040;13.680;2023-11-21T08:19:40;1.85;;;1.30;;
25637;SDS011;13496;51.040;13.680;2023-11-21T08:24:42;1.80;;;1.52;;
25637;SDS011;13496;51.040;13.680;2023-11-21T08:29:44;1.98;;;1.30;;
25637;SDS011;13496;51.040;13.680;2023-11-21T08:34:45;1.80;;;1.30;;
25637;SDS011;13496;51.040;13.680;2023-11-21T08:39:47;2.17;;;1.35;;
25637;SDS011;13496;51.040;13.680;2023-11-21T08:44:54;1.30;;;1.20;;
25637;SDS011;13496;51.040;13.680;2023-11-21T08:50:02;1.67;;;1.40;;
25637;SDS011;13496;51.040;13.680;2023-11-21T08:55:05;2.53;;;1.52;;
25637;SDS011;13496;51.040;13.680;2023-11-21T09:00:10;1.75;;;1.52;;
25637;SDS011;13496;51.040;13.680;2023-11-21T09:05:17;2.58;;;1.35;;
25637;SDS011;13496;51.040;13.680;2023-11-21T09:10:20;2.47;;;1.50;;
25637;SDS011;13496;51.040;13.680;2023-11-21T09:15:22;2.13;;;1.60;;
25637;SDS011;13496;51.040;13.680;2023-11-21T09:20:23;1.35;;;1.25;;
25637;SDS011;13496;51.040;13.680;2023-11-21T09:25:25;2.22;;;1.45;;
25637;SDS011;13496;51.040;13.680;2023-11-21T09:30:27;1.58;;;1.48;;
25637;SDS011;13496;51.040;13.680;2023-11-21T09:35:28;2.00;;;1.50;;
25637;SDS011;13496;51.040;13.680;2023-11-21T09:40:30;2.28;;;1.70;;
25637;SDS011;13496;51.040;13.680;2023-11-21T09:45:35;1.60;;;1.27;;
25637;SDS011;13496;51.040;13.680;2023-11-21T09:50:41;2.15;;;1.35;;
25637;SDS011;13496;51.040;13.680;2023-11-21T09:55:44;1.60;;;1.25;;
25637;SDS011;13496;51.040;13.680;2023-11-21T10:00:48;2.03;;;1.35;;
25637;SDS011;13496;51.040;13.680;2023-11-21T10:05:53;1.27;;;1.17;;
25637;SDS011;13496;51.040;13.680;2023-11-21T10:10:57;3.33;;;1.45;;
25637;SDS011;13496;51.040;13.680;2023-11-21T10:16:00;1.70;;;1.35;;
25637;SDS011;13496;51.040;13.680;2023-11-21T10:21:07;1.30;;;1.20;;
25637;SDS011;13496;51.040;13.680;2023-11-21T10:26:11;1.42;;;1.30;;
25637;SDS011;13496;51.040;13.680;2023-11-21T10:31:17;2.00;;;1.60;;
25637;SDS011;13496;51.040;13.680;2023-11-21T10:36:26;1.38;;;1.13;;
25637;SDS011;13496;51.040;13.680;2023-11-21T10:41:28;1.38;;;1.20;;
25637;SDS011;13496;51.040;13.680;2023-11-21T10:46:30;1.70;;;1.60;;
25637;SDS011;13496;51.040;13.680;2023-11-21T10:51:32;1.50;;;1.40;;
25637;SDS011;13496;51.040;13.680;2023-11-21T10:56:33;1.52;;;1.42;;
25637;SDS011;13496;51.040;13.680;2023-11-21T11:01:42;1.73;;;1.50;;
25637;SDS011;13496;51.040;13.680;2023-11-21T11:06:48;1.40;;;1.30;;
25637;SDS011;13496;51.040;13.680;2023-11-21T11:11:53;1.98;;;1.42;;
25637;SDS011;13496;51.040;13.680;2023-11-21T11:16:55;1.60;;;1.50;;
25637;SDS011;13496;51.040;13.680;2023-11-21T11:32:26;1.33;;;1.23;;
25637;SDS011;13496;51.040;13.680;2023-11-21T11:37:44;2.00;;;1.70;;
25637;SDS011;13496;51.040;13.680;2023-11-21T11:42:58;1.63;;;1.52;;
25637;SDS011;13496;51.040;13.680;2023-11-21T11:48:05;1.30;;;1.20;;
25637;SDS011;13496;51.040;13.680;2023-11-21T11:53:13;2.15;;;1.52;;
25637;SDS011;13496;51.040;13.680;2023-11-21T11:58:16;1.50;;;1.40;;
25637;SDS011;13496;51.040;13.680;2023-11-21T12:03:18;1.60;;;1.50;;
25637;SDS011;13496;51.040;13.680;2023-11-21T12:08:20;1.83;;;1.70;;
25637;SDS011;13496;51.040;13.680;2023-11-21T12:13:22;1.67;;;1.58;;
25637;SDS011;13496;51.040;13.680;2023-11-21T12:18:24;1.80;;;1.70;;
25637;SDS011;13496;51.040;13.680;2023-11-21T12:23:27;2.70;;;2.45;;
25637;SDS011;13496;51.040;13.680;2023-11-21T12:28:29;1.98;;;1.75;;
25637;SDS011;13496;51.040;13.680;2023-11-21T12:33:35;2.13;;;1.92;;
25637;SDS011;13496;51.040;13.680;2023-11-21T12:38:36;1.73;;;1.63;;
25637;SDS011;13496;51.040;13.680;2023-11-21T12:43:38;2.10;;;2.00;;
25637;SDS011;13496;51.040;13.680;2023-11-21T12:48:41;2.30;;;1.73;;
25637;SDS011;13496;51.040;13.680;2023-11-21T12:53:46;2.10;;;2.00;;
25637;SDS011;13496;51.040;13.680;2023-11-21T12:58:49;2.22;;;2.03;;
25637;SDS011;13496;51.040;13.680;2023-11-21T13:03:52;2.30;;;2.10;;
25637;SDS011;13496;51.040;13.680;2023-11-21T13:08:54;2.00;;;1.88;;
25637;SDS011;13496;51.040;13.680;2023-11-21T13:13:58;3.97;;;2.00;;
25637;SDS011;13496;51.040;13.680;2023-11-21T13:19:02;1.83;;;1.73;;
25637;SDS011;13496;51.040;13.680;2023-11-21T13:24:04;2.22;;;2.03;;
25637;SDS011;13496;51.040;13.680;2023-11-21T13:29:06;2.42;;;2.22;;
25637;SDS011;13496;51.040;13.680;2023-11-21T13:34:08;2.53;;;2.33;;
25637;SDS011;13496;51.040;13.680;2023-11-21T13:39:10;2.70;;;2.50;;
25637;SDS011;13496;51.040;13.680;2023-11-21T13:44:16;2.37;;;2.17;;
25637;SDS011;13496;51.040;13.680;2023-11-21T13:49:27;2.20;;;2.00;;
25637;SDS011;13496;51.040;13.680;2023-11-21T13:54:33;2.30;;;2.10;;
25637;SDS011;13496;51.040;13.680;2023-11-21T13:59:34;2.38;;;1.90;;
25637;SDS011;13496;51.040;13.680;2023-11-21T14:04:38;2.20;;;2.00;;
25637;SDS011;13496;51.040;13.680;2023-11-21T14:10:02;2.47;;;2.28;;
25637;SDS011;13496;51.040;13.680;2023-11-21T14:15:05;2.25;;;2.15;;
25637;SDS011;13496;51.040;13.680;2023-11-21T14:20:10;2.42;;;2.22;;
25637;SDS011;13496;51.040;13.680;2023-11-21T14:25:17;2.53;;;2.33;;
25637;SDS011;13496;51.040;13.680;2023-11-21T14:30:19;2.08;;;1.88;;
25637;SDS011;13496;51.040;13.680;2023-11-21T14:35:23;2.33;;;2.20;;
25637;SDS011;13496;51.040;13.680;2023-11-21T14:40:25;2.40;;;2.17;;
25637;SDS011;13496;51.040;13.680;2023-11-21T14:45:28;3.15;;;2.45;;
25637;SDS011;13496;51.040;13.680;2023-11-21T14:50:31;3.13;;;2.33;;
25637;SDS011;13496;51.040;13.680;2023-11-21T14:56:05;2.25;;;2.00;;
25637;SDS011;13496;51.040;13.680;2023-11-21T15:01:09;2.83;;;2.40;;
25637;SDS011;13496;51.040;13.680;2023-11-21T15:06:12;2.55;;;2.35;;
25637;SDS011;13496;51.040;13.680;2023-11-21T15:11:34;2.33;;;2.13;;
25637;SDS011;13496;51.040;13.680;2023-11-21T15:16:38;2.50;;;2.30;;
25637;SDS011;13496;51.040;13.680;2023-11-21T15:21:43;2.38;;;2.10;;
25637;SDS011;13496;51.040;13.680;2023-11-21T15:26:47;2.85;;;2.30;;
25637;SDS011;13496;51.040;13.680;2023-11-21T15:31:49;2.40;;;2.20;;
25637;SDS011;13496;51.040;13.680;2023-11-21T15:36:50;2.58;;;2.20;;
25637;SDS011;13496;51.040;13.680;2023-11-21T15:41:54;2.40;;;2.20;;
25637;SDS011;13496;51.040;13.680;2023-11-21T15:46:56;2.40;;;2.20;;
25637;SDS011;13496;51.040;13.680;2023-11-21T15:51:58;2.58;;;2.20;;
25637;SDS011;13496;51.040;13.680;2023-11-21T15:57:00;2.50;;;2.30;;
25637;SDS011;13496;51.040;13.680;2023-11-21T16:02:02;3.22;;;2.00;;
25637;SDS011;13496;51.040;13.680;2023-11-21T16:07:07;2.72;;;2.38;;
25637;SDS011;13496;51.040;13.680;2023-11-21T16:12:08;2.35;;;2.15;;
25637;SDS011;13496;51.040;13.680;2023-11-21T16:17:12;3.03;;;2.38;;
25637;SDS011;13496;51.040;13.680;2023-11-21T16:22:15;2.65;;;2.45;;
25637;SDS011;13496;51.040;13.680;2023-11-21T16:27:16;2.67;;;2.17;;
25637;SDS011;13496;51.040;13.680;2023-11-21T16:32:21;2.60;;;2.30;;
25637;SDS011;13496;51.040;13.680;2023-11-21T16:37:22;2.20;;;2.00;;
25637;SDS011;13496;51.040;13.680;2023-11-21T16:42:24;3.20;;;2.10;;
25637;SDS011;13496;51.040;13.680;2023-11-21T16:47:37;2.60;;;2.40;;
25637;SDS011;13496;51.040;13.680;2023-11-21T16:52:44;4.18;;;2.50;;
25637;SDS011;13496;51.040;13.680;2023-11-21T16:57:49;3.77;;;2.23;;
25637;SDS011;13496;51.040;13.680;2023-11-21T17:02:57;5.43;;;2.15;;
25637;SDS011;13496;51.040;13.680;2023-11-21T17:07:59;2.33;;;2.13;;
25637;SDS011;13496;51.040;13.680;2023-11-21T17:13:19;2.92;;;1.92;;
25637;SDS011;13496;51.040;13.680;2023-11-21T17:18:21;3.83;;;2.25;;
25637;SDS011;13496;51.040;13.680;2023-11-21T17:23:27;2.60;;;1.98;;
25637;SDS011;13496;51.040;13.680;2023-11-21T17:28:35;9.43;;;2.58;;
25637;SDS011;13496;51.040;13.680;2023-11-21T17:33:38;21.65;;;4.63;;
25637;SDS011;13496;51.040;13.680;2023-11-21T17:38:44;32.80;;;6.00;;
25637;SDS011;13496;51.040;13.680;2023-11-21T17:43:53;47.00;;;7.03;;
25637;SDS011;13496;51.040;13.680;2023-11-21T17:48:59;39.90;;;7.00;;
25637;SDS011;13496;51.040;13.680;2023-11-21T17:54:03;36.80;;;6.07;;
25637;SDS011;13496;51.040;13.680;2023-11-21T17:59:09;33.07;;;6.27;;
25637;SDS011;13496;51.040;13.680;2023-11-21T18:04:14;33.30;;;6.10;;
25637;SDS011;13496;51.040;13.680;2023-11-21T18:09:21;72.22;;;11.05;;
25637;SDS011;13496;51.040;13.680;2023-11-21T18:14:23;77.90;;;11.60;;
25637;SDS011;13496;51.040;13.680;2023-11-21T18:19:31;77.97;;;11.10;;
25637;SDS011;13496;51.040;13.680;2023-11-21T18:24:36;92.05;;;13.13;;
25637;SDS011;13496;51.040;13.680;2023-11-21T18:29:56;66.38;;;11.93;;
25637;SDS011;13496;51.040;13.680;2023-11-21T18:35:01;74.00;;;11.97;;
25637;SDS011;13496;51.040;13.680;2023-11-21T18:40:03;91.18;;;13.82;;
25637;SDS011;13496;51.040;13.680;2023-11-21T18:45:06;127.03;;;17.20;;
25637;SDS011;13496;51.040;13.680;2023-11-21T18:50:12;106.43;;;15.57;;
25637;SDS011;13496;51.040;13.680;2023-11-21T18:55:18;83.78;;;17.05;;
25637;SDS011;13496;51.040;13.680;2023-11-21T19:00:22;105.87;;;23.13;;
25637;SDS011;13496;51.040;13.680;2023-11-21T19:05:24;121.25;;;26.63;;
25637;SDS011;13496;51.040;13.680;2023-11-21T19:10:26;92.45;;;27.70;;
25637;SDS011;13496;51.040;13.680;2023-11-21T19:15:30;66.65;;;24.05;;
25637;SDS011;13496;51.040;13.680;2023-11-21T19:20:32;59.42;;;24.73;;
25637;SDS011;13496;51.040;13.680;2023-11-21T19:25:34;53.90;;;24.60;;
25637;SDS011;13496;51.040;13.680;2023-11-21T19:30:36;54.80;;;23.80;;
25637;SDS011;13496;51.040;13.680;2023-11-21T19:35:40;47.30;;;24.23;;
25637;SDS011;13496;51.040;13.680;2023-11-21T19:40:41;46.28;;;22.88;;
25637;SDS011;13496;51.040;13.680;2023-11-21T19:45:44;41.78;;;23.90;;
25637;SDS011;13496;51.040;13.680;2023-11-21T19:50:46;35.17;;;21.48;;
25637;SDS011;13496;51.040;13.680;2023-11-21T19:55:49;42.92;;;21.08;;
25637;SDS011;13496;51.040;13.680;2023-11-21T20:00:51;38.88;;;19.35;;
25637;SDS011;13496;51.040;13.680;2023-11-21T20:05:54;35.87;;;18.63;;
25637;SDS011;13496;51.040;13.680;2023-11-21T20:10:56;30.90;;;17.30;;
25637;SDS011;13496;51.040;13.680;2023-11-21T20:15:58;33.20;;;16.52;;
25637;SDS011;13496;51.040;13.680;2023-11-21T20:21:01;47.70;;;18.58;;
25637;SDS011;13496;51.040;13.680;2023-11-21T20:26:03;37.13;;;15.65;;
25637;SDS011;13496;51.040;13.680;2023-11-21T20:31:06;36.63;;;15.02;;
25637;SDS011;13496;51.040;13.680;2023-11-21T20:36:08;37.38;;;14.27;;
25637;SDS011;13496;51.040;13.680;2023-11-21T20:41:10;34.33;;;13.35;;
25637;SDS011;13496;51.040;13.680;2023-11-21T20:46:15;29.40;;;12.18;;
25637;SDS011;13496;51.040;13.680;2023-11-21T20:51:17;29.65;;;12.25;;
25637;SDS011;13496;51.040;13.680;2023-11-21T20:56:18;22.27;;;10.40;;
25637;SDS011;13496;51.040;13.680;2023-11-21T21:01:20;26.50;;;10.93;;
25637;SDS011;13496;51.040;13.680;2023-11-21T21:06:22;20.70;;;9.73;;
25637;SDS011;13496;51.040;13.680;2023-11-21T21:11:26;30.13;;;10.63;;
25637;SDS011;13496;51.040;13.680;2023-11-21T21:16:29;23.30;;;10.70;;
25637;SDS011;13496;51.040;13.680;2023-11-21T21:21:31;18.67;;;9.23;;
25637;SDS011;13496;51.040;13.680;2023-11-21T21:26:34;19.45;;;9.43;;
25637;SDS011;13496;51.040;13.680;2023-11-21T21:31:36;18.15;;;9.25;;
25637;SDS011;13496;51.040;13.680;2023-11-21T21:36:38;18.27;;;9.23;;
25637;SDS011;13496;51.040;13.680;2023-11-21T21:41:43;17.17;;;9.15;;
25637;SDS011;13496;51.040;13.680;2023-11-21T21:46:45;22.52;;;8.80;;
25637;SDS011;13496;51.040;13.680;2023-11-21T21:51:47;21.77;;;8.55;;
25637;SDS011;13496;51.040;13.680;2023-11-21T21:56:49;20.98;;;8.82;;
25637;SDS011;13496;51.040;13.680;2023-11-21T22:01:51;15.00;;;8.38;;
25637;SDS011;13496;51.040;13.680;2023-11-21T22:06:54;17.58;;;8.75;;
25637;SDS011;13496;51.040;13.680;2023-11-21T22:11:56;14.75;;;8.15;;
25637;SDS011;13496;51.040;13.680;2023-11-21T22:16:57;16.83;;;7.93;;
25637;SDS011;13496;51.040;13.680;2023-11-21T22:21:59;14.63;;;8.02;;
25637;SDS011;13496;51.040;13.680;2023-11-21T22:27:01;17.73;;;8.38;;
25637;SDS011;13496;51.040;13.680;2023-11-21T22:32:03;12.87;;;7.13;;
25637;SDS011;13496;51.040;13.680;2023-11-21T22:37:06;13.67;;;7.20;;
25637;SDS011;13496;51.040;13.680;2023-11-21T22:42:07;12.13;;;6.80;;
25637;SDS011;13496;51.040;13.680;2023-11-21T22:47:09;10.75;;;7.10;;
25637;SDS011;13496;51.040;13.680;2023-11-21T22:52:11;11.45;;;7.65;;
25637;SDS011;13496;51.040;13.680;2023-11-21T22:57:12;13.20;;;6.75;;
25637;SDS011;13496;51.040;13.680;2023-11-21T23:02:14;8.65;;;6.55;;
25637;SDS011;13496;51.040;13.680;2023-11-21T23:07:16;12.13;;;6.82;;
25637;SDS011;13496;51.040;13.680;2023-11-21T23:12:18;9.63;;;6.68;;
25637;SDS011;13496;51.040;13.680;2023-11-21T23:17:19;9.18;;;6.30;;
25637;SDS011;13496;51.040;13.680;2023-11-21T23:22:21;8.48;;;6.15;;
25637;SDS011;13496;51.040;13.680;2023-11-21T23:27:23;8.00;;;5.65;;
25637;SDS011;13496;51.040;13.680;2023-11-21T23:32:25;8.10;;;5.47;;
25637;SDS011;13496;51.040;13.680;2023-11-21T23:37:27;6.40;;;5.05;;
25637;SDS011;13496;51.040;13.680;2023-11-21T23:42:29;8.27;;;5.53;;
25637;SDS011;13496;51.040;13.680;2023-11-21T23:47:31;9.05;;;5.60;;
25637;SDS011;13496;51.040;13.680;2023-11-21T23:52:33;7.50;;;5.97;;
25637;SDS011;13496;51.040;13.680;2023-11-21T23:57:35;8.17;;;5.23;;
